sensor_id;sensor_type;location;lat;lon;timestamp;temperature;humidity
11152;DHT22;5630;49.342;10.802;2023-01-06T00:00:27;8.30;99.90
11152;DHT22;5630;49.342;10.802;2023-01-06T00:02:52;8.30;99.90
11152;DHT22;5630;49.342;10.802;2023-01-06T00:05:18;8.30;99.90
11152;DHT22;5630;49.342;10.802;2023-01-06T00:07:43;8.30;99.90
11152;DHT22;5630;49.342;10.802;2023-01-06T00:10:10;8.30;99.90
11152;DHT22;5630;49.342;10.802;2023-01-06T00:12:36;8.20;99.90
11152;DHT22;5630;49.342;10.802;2023-01-06T00:15:02;8.30;99.90
11152;DHT22;5630;49.342;10.802;2023-01-06T00:17:27;8.30;99.90
11152;DHT22;5630;49.342;10.802;2023-01-06T00:19:53;8.30;99.90
11152;DHT22;5630;49.342;10.802;2023-01-06T00:22:19;8.30;99.90
11152;DHT22;5630;49.342;10.802;2023-01-06T00:24:44;8.40;99.90
11152;DHT22;5630;49.342;10.802;2023-01-06T00:27:10;8.40;99.90
11152;DHT22;5630;49.342;10.802;2023-01-06T00:29:35;8.30;99.90
11152;DHT22;5630;49.342;10.802;2023-01-06T00:32:01;8.30;99.90
11152;DHT22;5630;49.342;10.802;2023-01-06T00:34:28;8.40;99.90
11152;DHT22;5630;49.342;10.802;2023-01-06T00:36:54;8.40;99.90
11152;DHT22;5630;49.342;10.802;2023-01-06T00:39:20;8.40;99.90
11152;DHT22;5630;49.342;10.802;2023-01-06T00:41:45;8.40;99.90
11152;DHT22;5630;49.342;10.802;2023-01-06T00:44:35;8.40;99.90
11152;DHT22;5630;49.342;10.802;2023-01-06T00:47:01;8.40;99.90
11152;DHT22;5630;49.342;10.802;2023-01-06T00:49:27;8.40;99.90
11152;DHT22;5630;49.342;10.802;2023-01-06T00:51:53;8.40;99.90
11152;DHT22;5630;49.342;10.802;2023-01-06T00:54:18;8.40;99.90
11152;DHT22;5630;49.342;10.802;2023-01-06T00:56:46;8.40;99.90
11152;DHT22;5630;49.342;10.802;2023-01-06T00:59:16;8.40;99.90
11152;DHT22;5630;49.342;10.802;2023-01-06T01:01:43;8.40;99.90
11152;DHT22;5630;49.342;10.802;2023-01-06T01:04:09;8.40;99.90
11152;DHT22;5630;49.342;10.802;2023-01-06T01:06:36;8.30;99.90
11152;DHT22;5630;49.342;10.802;2023-01-06T01:09:03;8.40;99.90
11152;DHT22;5630;49.342;10.802;2023-01-06T01:11:29;8.40;99.90
11152;DHT22;5630;49.342;10.802;2023-01-06T01:14:16;8.40;99.90
11152;DHT22;5630;49.342;10.802;2023-01-06T01:16:42;8.40;99.90
11152;DHT22;5630;49.342;10.802;2023-01-06T01:19:08;8.50;99.90
11152;DHT22;5630;49.342;10.802;2023-01-06T01:21:33;8.40;99.90
11152;DHT22;5630;49.342;10.802;2023-01-06T01:23:59;8.50;99.90
11152;DHT22;5630;49.342;10.802;2023-01-06T01:26:24;8.50;99.90
11152;DHT22;5630;49.342;10.802;2023-01-06T01:28:50;8.50;99.90
11152;DHT22;5630;49.342;10.802;2023-01-06T01:31:16;8.50;99.90
11152;DHT22;5630;49.342;10.802;2023-01-06T01:33:41;8.50;99.90
11152;DHT22;5630;49.342;10.802;2023-01-06T01:36:09;8.50;99.90
11152;DHT22;5630;49.342;10.802;2023-01-06T01:38:35;8.50;99.90
11152;DHT22;5630;49.342;10.802;2023-01-06T01:41:01;8.50;99.90
11152;DHT22;5630;49.342;10.802;2023-01-06T01:43:50;8.50;99.90
11152;DHT22;5630;49.342;10.802;2023-01-06T01:48:48;8.60;99.90
11152;DHT22;5630;49.342;10.802;2023-01-06T01:51:16;8.60;99.90
11152;DHT22;5630;49.342;10.802;2023-01-06T01:53:47;8.60;99.90
11152;DHT22;5630;49.342;10.802;2023-01-06T01:56:17;8.60;99.90
11152;DHT22;5630;49.342;10.802;2023-01-06T01:58:51;8.60;99.90
11152;DHT22;5630;49.342;10.802;2023-01-06T02:01:17;8.60;99.90
11152;DHT22;5630;49.342;10.802;2023-01-06T02:03:43;8.60;99.90
11152;DHT22;5630;49.342;10.802;2023-01-06T02:06:15;8.70;99.90
11152;DHT22;5630;49.342;10.802;2023-01-06T02:08:51;8.60;99.90
11152;DHT22;5630;49.342;10.802;2023-01-06T02:11:18;8.70;99.90
11152;DHT22;5630;49.342;10.802;2023-01-06T02:13:44;8.60;99.90
11152;DHT22;5630;49.342;10.802;2023-01-06T02:16:34;8.70;99.90
11152;DHT22;5630;49.342;10.802;2023-01-06T02:19:31;8.70;99.90
11152;DHT22;5630;49.342;10.802;2023-01-06T02:33:42;8.70;99.90
11152;DHT22;5630;49.342;10.802;2023-01-06T02:36:28;8.60;99.90
11152;DHT22;5630;49.342;10.802;2023-01-06T02:39:12;8.70;99.90
11152;DHT22;5630;49.342;10.802;2023-01-06T02:41:47;8.60;99.90
11152;DHT22;5630;49.342;10.802;2023-01-06T02:44:17;8.60;99.90
11152;DHT22;5630;49.342;10.802;2023-01-06T02:58:04;8.70;99.90
11152;DHT22;5630;49.342;10.802;2023-01-06T03:00:56;8.70;99.90
11152;DHT22;5630;49.342;10.802;2023-01-06T03:03:23;8.70;99.90
11152;DHT22;5630;49.342;10.802;2023-01-06T03:05:57;8.70;99.90
11152;DHT22;5630;49.342;10.802;2023-01-06T03:08:26;8.70;99.90
11152;DHT22;5630;49.342;10.802;2023-01-06T03:10:53;8.70;99.90
11152;DHT22;5630;49.342;10.802;2023-01-06T03:16:06;8.70;99.90
11152;DHT22;5630;49.342;10.802;2023-01-06T03:18:33;8.70;99.90
11152;DHT22;5630;49.342;10.802;2023-01-06T03:21:03;8.70;99.90
11152;DHT22;5630;49.342;10.802;2023-01-06T03:23:31;8.70;99.90
11152;DHT22;5630;49.342;10.802;2023-01-06T03:25:57;8.70;99.90
11152;DHT22;5630;49.342;10.802;2023-01-06T03:28:23;8.70;99.90
11152;DHT22;5630;49.342;10.802;2023-01-06T03:30:57;8.80;99.90
11152;DHT22;5630;49.342;10.802;2023-01-06T03:39:07;8.70;99.90
11152;DHT22;5630;49.342;10.802;2023-01-06T03:41:42;8.80;99.90
11152;DHT22;5630;49.342;10.802;2023-01-06T03:44:45;8.80;99.90
11152;DHT22;5630;49.342;10.802;2023-01-06T03:47:21;8.80;99.90
11152;DHT22;5630;49.342;10.802;2023-01-06T03:49:59;8.80;99.90
11152;DHT22;5630;49.342;10.802;2023-01-06T03:52:29;8.80;99.90
11152;DHT22;5630;49.342;10.802;2023-01-06T03:55:12;8.80;99.90
11152;DHT22;5630;49.342;10.802;2023-01-06T03:57:43;8.80;99.90
11152;DHT22;5630;49.342;10.802;2023-01-06T04:00:12;8.80;99.90
11152;DHT22;5630;49.342;10.802;2023-01-06T04:02:40;8.90;99.90
11152;DHT22;5630;49.342;10.802;2023-01-06T04:05:10;8.90;99.90
11152;DHT22;5630;49.342;10.802;2023-01-06T04:07:38;8.90;99.90
11152;DHT22;5630;49.342;10.802;2023-01-06T04:10:04;8.90;99.90
11152;DHT22;5630;49.342;10.802;2023-01-06T04:12:30;8.80;99.90
11152;DHT22;5630;49.342;10.802;2023-01-06T04:15:11;8.80;99.90
11152;DHT22;5630;49.342;10.802;2023-01-06T04:17:38;8.80;99.90
11152;DHT22;5630;49.342;10.802;2023-01-06T04:20:05;8.90;99.90
11152;DHT22;5630;49.342;10.802;2023-01-06T04:22:31;8.80;99.90
11152;DHT22;5630;49.342;10.802;2023-01-06T04:24:57;8.80;99.90
11152;DHT22;5630;49.342;10.802;2023-01-06T04:27:22;8.80;99.90
11152;DHT22;5630;49.342;10.802;2023-01-06T04:29:48;8.80;99.90
11152;DHT22;5630;49.342;10.802;2023-01-06T04:32:14;8.80;99.90
11152;DHT22;5630;49.342;10.802;2023-01-06T04:34:39;8.80;99.90
11152;DHT22;5630;49.342;10.802;2023-01-06T04:37:05;8.80;99.90
11152;DHT22;5630;49.342;10.802;2023-01-06T04:39:30;8.80;99.90
11152;DHT22;5630;49.342;10.802;2023-01-06T04:41:56;8.80;99.90
11152;DHT22;5630;49.342;10.802;2023-01-06T04:44:21;8.90;99.90
11152;DHT22;5630;49.342;10.802;2023-01-06T04:46:47;8.90;99.90
11152;DHT22;5630;49.342;10.802;2023-01-06T04:49:12;8.80;99.90
11152;DHT22;5630;49.342;10.802;2023-01-06T04:51:38;8.80;99.90
11152;DHT22;5630;49.342;10.802;2023-01-06T04:54:04;8.90;99.90
11152;DHT22;5630;49.342;10.802;2023-01-06T04:56:29;8.80;99.90
11152;DHT22;5630;49.342;10.802;2023-01-06T04:58:55;8.90;99.90
11152;DHT22;5630;49.342;10.802;2023-01-06T05:01:22;8.90;99.90
11152;DHT22;5630;49.342;10.802;2023-01-06T05:03:48;8.90;99.90
11152;DHT22;5630;49.342;10.802;2023-01-06T05:06:14;8.90;99.90
11152;DHT22;5630;49.342;10.802;2023-01-06T05:08:41;8.90;99.90
11152;DHT22;5630;49.342;10.802;2023-01-06T05:11:13;8.90;99.90
11152;DHT22;5630;49.342;10.802;2023-01-06T05:13:39;8.90;99.90
11152;DHT22;5630;49.342;10.802;2023-01-06T05:18:50;8.90;99.90
11152;DHT22;5630;49.342;10.802;2023-01-06T05:21:16;8.80;99.90
11152;DHT22;5630;49.342;10.802;2023-01-06T05:23:41;8.80;99.90
11152;DHT22;5630;49.342;10.802;2023-01-06T05:26:09;8.80;99.90
11152;DHT22;5630;49.342;10.802;2023-01-06T05:28:39;8.80;99.90
11152;DHT22;5630;49.342;10.802;2023-01-06T05:31:05;8.80;99.90
11152;DHT22;5630;49.342;10.802;2023-01-06T05:33:32;8.70;99.90
11152;DHT22;5630;49.342;10.802;2023-01-06T05:36:06;8.70;99.90
11152;DHT22;5630;49.342;10.802;2023-01-06T05:38:33;8.70;99.90
11152;DHT22;5630;49.342;10.802;2023-01-06T05:40:58;8.70;99.90
11152;DHT22;5630;49.342;10.802;2023-01-06T05:43:24;8.70;99.90
11152;DHT22;5630;49.342;10.802;2023-01-06T05:45:51;8.70;99.90
11152;DHT22;5630;49.342;10.802;2023-01-06T05:48:17;8.70;99.90
11152;DHT22;5630;49.342;10.802;2023-01-06T05:50:42;8.60;99.90
11152;DHT22;5630;49.342;10.802;2023-01-06T05:53:08;8.60;99.90
11152;DHT22;5630;49.342;10.802;2023-01-06T05:55:33;8.60;99.90
11152;DHT22;5630;49.342;10.802;2023-01-06T05:57:59;8.60;99.90
11152;DHT22;5630;49.342;10.802;2023-01-06T06:00:25;8.50;99.90
11152;DHT22;5630;49.342;10.802;2023-01-06T06:02:50;8.50;99.90
11152;DHT22;5630;49.342;10.802;2023-01-06T06:05:16;8.50;99.90
11152;DHT22;5630;49.342;10.802;2023-01-06T06:07:41;8.50;99.90
11152;DHT22;5630;49.342;10.802;2023-01-06T06:10:07;8.40;99.90
11152;DHT22;5630;49.342;10.802;2023-01-06T06:12:34;8.50;99.90
11152;DHT22;5630;49.342;10.802;2023-01-06T06:14:59;8.40;99.90
11152;DHT22;5630;49.342;10.802;2023-01-06T06:17:25;8.40;99.90
11152;DHT22;5630;49.342;10.802;2023-01-06T06:19:50;8.50;99.90
11152;DHT22;5630;49.342;10.802;2023-01-06T06:22:16;8.40;99.90
11152;DHT22;5630;49.342;10.802;2023-01-06T06:24:42;8.50;99.90
11152;DHT22;5630;49.342;10.802;2023-01-06T06:27:07;8.50;99.90
11152;DHT22;5630;49.342;10.802;2023-01-06T06:29:33;8.50;99.90
11152;DHT22;5630;49.342;10.802;2023-01-06T06:31:58;8.50;99.90
11152;DHT22;5630;49.342;10.802;2023-01-06T06:34:24;8.50;99.90
11152;DHT22;5630;49.342;10.802;2023-01-06T06:36:49;8.50;99.90
11152;DHT22;5630;49.342;10.802;2023-01-06T06:39:15;8.50;99.90
11152;DHT22;5630;49.342;10.802;2023-01-06T06:41:41;8.50;99.90
11152;DHT22;5630;49.342;10.802;2023-01-06T06:44:06;8.50;99.90
11152;DHT22;5630;49.342;10.802;2023-01-06T06:46:32;8.50;99.90
11152;DHT22;5630;49.342;10.802;2023-01-06T06:48:58;8.50;99.90
11152;DHT22;5630;49.342;10.802;2023-01-06T06:51:23;8.50;99.90
11152;DHT22;5630;49.342;10.802;2023-01-06T06:53:49;8.50;99.90
11152;DHT22;5630;49.342;10.802;2023-01-06T06:56:17;8.50;99.90
11152;DHT22;5630;49.342;10.802;2023-01-06T06:58:43;8.60;99.90
11152;DHT22;5630;49.342;10.802;2023-01-06T07:01:14;8.60;99.90
11152;DHT22;5630;49.342;10.802;2023-01-06T07:03:40;8.60;99.90
11152;DHT22;5630;49.342;10.802;2023-01-06T07:06:08;8.60;99.90
11152;DHT22;5630;49.342;10.802;2023-01-06T07:08:34;8.60;99.90
11152;DHT22;5630;49.342;10.802;2023-01-06T07:11:00;8.60;99.90
11152;DHT22;5630;49.342;10.802;2023-01-06T07:13:26;8.60;99.90
11152;DHT22;5630;49.342;10.802;2023-01-06T07:15:52;8.60;99.90
11152;DHT22;5630;49.342;10.802;2023-01-06T07:18:17;8.70;99.90
11152;DHT22;5630;49.342;10.802;2023-01-06T07:20:47;8.70;99.90
11152;DHT22;5630;49.342;10.802;2023-01-06T07:23:14;8.70;99.90
11152;DHT22;5630;49.342;10.802;2023-01-06T07:25:40;8.70;99.90
11152;DHT22;5630;49.342;10.802;2023-01-06T07:28:05;8.70;99.90
11152;DHT22;5630;49.342;10.802;2023-01-06T07:30:33;8.80;99.90
11152;DHT22;5630;49.342;10.802;2023-01-06T07:42:43;9.60;99.90
11152;DHT22;5630;49.342;10.802;2023-01-06T07:45:09;11.50;99.90
11152;DHT22;5630;49.342;10.802;2023-01-06T07:47:35;11.50;99.90
11152;DHT22;5630;49.342;10.802;2023-01-06T07:50:01;11.40;99.90
11152;DHT22;5630;49.342;10.802;2023-01-06T07:52:27;11.60;99.90
11152;DHT22;5630;49.342;10.802;2023-01-06T07:54:53;11.30;99.90
11152;DHT22;5630;49.342;10.802;2023-01-06T07:57:21;11.00;99.90
11152;DHT22;5630;49.342;10.802;2023-01-06T07:59:46;10.90;99.90
11152;DHT22;5630;49.342;10.802;2023-01-06T08:02:12;10.70;99.90
11152;DHT22;5630;49.342;10.802;2023-01-06T08:04:37;10.60;99.90
11152;DHT22;5630;49.342;10.802;2023-01-06T08:07:03;10.40;99.90
11152;DHT22;5630;49.342;10.802;2023-01-06T08:09:28;10.40;99.90
11152;DHT22;5630;49.342;10.802;2023-01-06T08:11:54;10.30;99.90
11152;DHT22;5630;49.342;10.802;2023-01-06T08:14:20;10.30;99.90
11152;DHT22;5630;49.342;10.802;2023-01-06T08:16:45;10.20;99.90
11152;DHT22;5630;49.342;10.802;2023-01-06T08:19:11;10.20;99.90
11152;DHT22;5630;49.342;10.802;2023-01-06T08:21:36;10.50;99.90
11152;DHT22;5630;49.342;10.802;2023-01-06T08:24:02;10.70;99.90
11152;DHT22;5630;49.342;10.802;2023-01-06T08:26:29;10.90;99.90
11152;DHT22;5630;49.342;10.802;2023-01-06T08:28:55;10.70;99.90
11152;DHT22;5630;49.342;10.802;2023-01-06T08:31:21;10.60;99.90
11152;DHT22;5630;49.342;10.802;2023-01-06T08:33:48;10.50;99.90
11152;DHT22;5630;49.342;10.802;2023-01-06T08:36:16;10.40;99.90
11152;DHT22;5630;49.342;10.802;2023-01-06T08:38:43;10.10;99.90
11152;DHT22;5630;49.342;10.802;2023-01-06T08:41:09;10.00;99.90
11152;DHT22;5630;49.342;10.802;2023-01-06T08:43:35;9.90;99.90
11152;DHT22;5630;49.342;10.802;2023-01-06T08:46:04;9.80;99.90
11152;DHT22;5630;49.342;10.802;2023-01-06T08:48:31;9.80;99.90
11152;DHT22;5630;49.342;10.802;2023-01-06T08:51:05;9.70;99.90
11152;DHT22;5630;49.342;10.802;2023-01-06T08:53:31;9.70;99.90
11152;DHT22;5630;49.342;10.802;2023-01-06T08:55:57;9.90;99.90
11152;DHT22;5630;49.342;10.802;2023-01-06T08:58:23;9.80;99.90
11152;DHT22;5630;49.342;10.802;2023-01-06T09:00:49;9.80;99.90
11152;DHT22;5630;49.342;10.802;2023-01-06T09:03:15;9.80;99.90
11152;DHT22;5630;49.342;10.802;2023-01-06T09:05:40;9.80;99.90
11152;DHT22;5630;49.342;10.802;2023-01-06T09:08:06;9.90;99.90
11152;DHT22;5630;49.342;10.802;2023-01-06T09:10:32;9.90;99.90
11152;DHT22;5630;49.342;10.802;2023-01-06T09:12:58;9.90;99.90
11152;DHT22;5630;49.342;10.802;2023-01-06T09:15:23;9.80;99.90
11152;DHT22;5630;49.342;10.802;2023-01-06T09:17:49;9.90;99.90
11152;DHT22;5630;49.342;10.802;2023-01-06T09:20:14;9.80;99.90
11152;DHT22;5630;49.342;10.802;2023-01-06T09:22:40;9.80;99.90
11152;DHT22;5630;49.342;10.802;2023-01-06T09:25:06;9.70;99.90
11152;DHT22;5630;49.342;10.802;2023-01-06T09:27:31;9.60;99.90
11152;DHT22;5630;49.342;10.802;2023-01-06T09:29:57;9.70;99.90
11152;DHT22;5630;49.342;10.802;2023-01-06T09:32:22;9.60;99.90
11152;DHT22;5630;49.342;10.802;2023-01-06T09:34:48;9.60;99.90
11152;DHT22;5630;49.342;10.802;2023-01-06T09:37:13;9.50;99.90
11152;DHT22;5630;49.342;10.802;2023-01-06T09:39:39;9.50;99.90
11152;DHT22;5630;49.342;10.802;2023-01-06T09:45:02;9.60;99.90
11152;DHT22;5630;49.342;10.802;2023-01-06T09:47:43;9.50;99.90
11152;DHT22;5630;49.342;10.802;2023-01-06T09:50:35;9.60;99.90
11152;DHT22;5630;49.342;10.802;2023-01-06T09:53:26;9.60;99.90
11152;DHT22;5630;49.342;10.802;2023-01-06T09:56:03;9.60;99.90
11152;DHT22;5630;49.342;10.802;2023-01-06T10:01:18;9.90;99.90
11152;DHT22;5630;49.342;10.802;2023-01-06T10:03:46;10.00;99.90
11152;DHT22;5630;49.342;10.802;2023-01-06T10:06:33;10.10;99.90
11152;DHT22;5630;49.342;10.802;2023-01-06T10:14:46;10.30;99.90
11152;DHT22;5630;49.342;10.802;2023-01-06T10:25:46;10.20;99.90
11152;DHT22;5630;49.342;10.802;2023-01-06T10:28:24;10.20;99.90
11152;DHT22;5630;49.342;10.802;2023-01-06T10:30:57;10.10;99.90
11152;DHT22;5630;49.342;10.802;2023-01-06T10:33:25;10.10;99.90
11152;DHT22;5630;49.342;10.802;2023-01-06T10:35:54;10.10;99.90
11152;DHT22;5630;49.342;10.802;2023-01-06T10:38:26;10.10;99.90
11152;DHT22;5630;49.342;10.802;2023-01-06T10:40:55;10.10;99.90
11152;DHT22;5630;49.342;10.802;2023-01-06T10:43:25;10.00;99.90
11152;DHT22;5630;49.342;10.802;2023-01-06T10:45:51;10.00;99.90
11152;DHT22;5630;49.342;10.802;2023-01-06T10:48:23;10.10;99.90
11152;DHT22;5630;49.342;10.802;2023-01-06T10:50:51;10.20;99.90
11152;DHT22;5630;49.342;10.802;2023-01-06T10:53:17;10.30;99.90
11152;DHT22;5630;49.342;10.802;2023-01-06T10:55:55;10.70;99.90
11152;DHT22;5630;49.342;10.802;2023-01-06T10:58:51;10.70;99.90
11152;DHT22;5630;49.342;10.802;2023-01-06T11:01:26;10.70;99.90
11152;DHT22;5630;49.342;10.802;2023-01-06T11:04:14;10.80;99.90
11152;DHT22;5630;49.342;10.802;2023-01-06T11:06:49;10.80;99.90
11152;DHT22;5630;49.342;10.802;2023-01-06T11:09:36;10.90;99.90
11152;DHT22;5630;49.342;10.802;2023-01-06T11:12:24;10.90;99.90
11152;DHT22;5630;49.342;10.802;2023-01-06T11:15:02;10.90;99.90
11152;DHT22;5630;49.342;10.802;2023-01-06T11:17:30;10.80;99.90
11152;DHT22;5630;49.342;10.802;2023-01-06T11:22:41;10.70;99.90
11152;DHT22;5630;49.342;10.802;2023-01-06T11:25:27;10.70;99.90
11152;DHT22;5630;49.342;10.802;2023-01-06T11:28:19;10.70;99.90
11152;DHT22;5630;49.342;10.802;2023-01-06T11:33:28;10.60;99.90
11152;DHT22;5630;49.342;10.802;2023-01-06T11:35:55;10.50;99.90
11152;DHT22;5630;49.342;10.802;2023-01-06T11:38:22;10.40;99.90
11152;DHT22;5630;49.342;10.802;2023-01-06T11:40:49;10.40;99.90
11152;DHT22;5630;49.342;10.802;2023-01-06T11:43:37;10.40;99.90
11152;DHT22;5630;49.342;10.802;2023-01-06T11:46:06;10.40;99.90
11152;DHT22;5630;49.342;10.802;2023-01-06T11:49:17;10.40;99.90
11152;DHT22;5630;49.342;10.802;2023-01-06T11:51:45;10.40;99.90
11152;DHT22;5630;49.342;10.802;2023-01-06T11:54:31;10.40;99.90
11152;DHT22;5630;49.342;10.802;2023-01-06T11:57:35;10.30;99.90
11152;DHT22;5630;49.342;10.802;2023-01-06T12:08:37;10.00;99.90
11152;DHT22;5630;49.342;10.802;2023-01-06T12:11:24;10.00;99.90
11152;DHT22;5630;49.342;10.802;2023-01-06T12:13:51;10.00;99.90
11152;DHT22;5630;49.342;10.802;2023-01-06T12:16:32;9.90;99.90
11152;DHT22;5630;49.342;10.802;2023-01-06T12:18:59;9.80;99.90
11152;DHT22;5630;49.342;10.802;2023-01-06T12:21:29;9.90;99.90
11152;DHT22;5630;49.342;10.802;2023-01-06T12:23:58;9.80;99.90
11152;DHT22;5630;49.342;10.802;2023-01-06T12:26:26;9.90;99.90
11152;DHT22;5630;49.342;10.802;2023-01-06T12:28:53;9.90;99.90
11152;DHT22;5630;49.342;10.802;2023-01-06T12:32:16;9.80;99.90
11152;DHT22;5630;49.342;10.802;2023-01-06T12:34:41;9.80;99.90
11152;DHT22;5630;49.342;10.802;2023-01-06T12:40:01;9.90;99.90
11152;DHT22;5630;49.342;10.802;2023-01-06T12:42:45;9.80;99.90
11152;DHT22;5630;49.342;10.802;2023-01-06T12:45:21;9.90;99.90
11152;DHT22;5630;49.342;10.802;2023-01-06T12:47:54;9.90;99.90
11152;DHT22;5630;49.342;10.802;2023-01-06T12:50:32;9.90;99.90
11152;DHT22;5630;49.342;10.802;2023-01-06T12:53:17;9.90;99.90
11152;DHT22;5630;49.342;10.802;2023-01-06T13:01:40;9.90;99.90
11152;DHT22;5630;49.342;10.802;2023-01-06T13:10:03;9.80;99.90
11152;DHT22;5630;49.342;10.802;2023-01-06T13:15:17;9.90;99.90
11152;DHT22;5630;49.342;10.802;2023-01-06T13:20:43;9.90;99.90
11152;DHT22;5630;49.342;10.802;2023-01-06T13:26:03;9.80;99.90
11152;DHT22;5630;49.342;10.802;2023-01-06T13:31:43;9.90;99.90
11152;DHT22;5630;49.342;10.802;2023-01-06T13:40:16;9.90;99.90
11152;DHT22;5630;49.342;10.802;2023-01-06T13:42:54;9.90;99.90
11152;DHT22;5630;49.342;10.802;2023-01-06T13:45:28;9.90;99.90
11152;DHT22;5630;49.342;10.802;2023-01-06T13:47:57;9.90;99.90
11152;DHT22;5630;49.342;10.802;2023-01-06T13:50:25;9.90;99.90
11152;DHT22;5630;49.342;10.802;2023-01-06T13:52:51;9.80;99.90
11152;DHT22;5630;49.342;10.802;2023-01-06T13:57:43;9.80;99.90
11152;DHT22;5630;49.342;10.802;2023-01-06T14:00:21;9.80;99.90
11152;DHT22;5630;49.342;10.802;2023-01-06T14:07:55;9.70;99.90
11152;DHT22;5630;49.342;10.802;2023-01-06T14:10:39;9.70;99.90
11152;DHT22;5630;49.342;10.802;2023-01-06T14:13:24;9.60;99.90
11152;DHT22;5630;49.342;10.802;2023-01-06T14:16:09;9.60;99.90
11152;DHT22;5630;49.342;10.802;2023-01-06T14:18:50;9.50;99.90
11152;DHT22;5630;49.342;10.802;2023-01-06T14:21:25;9.60;99.90
11152;DHT22;5630;49.342;10.802;2023-01-06T14:24:01;9.60;99.90
11152;DHT22;5630;49.342;10.802;2023-01-06T14:26:49;9.50;99.90
11152;DHT22;5630;49.342;10.802;2023-01-06T14:34:49;9.50;99.90
11152;DHT22;5630;49.342;10.802;2023-01-06T14:37:17;9.50;99.90
11152;DHT22;5630;49.342;10.802;2023-01-06T14:39:49;9.50;99.90
11152;DHT22;5630;49.342;10.802;2023-01-06T14:44:47;9.50;99.90
11152;DHT22;5630;49.342;10.802;2023-01-06T14:48:06;9.50;99.90
11152;DHT22;5630;49.342;10.802;2023-01-06T14:52:40;9.40;99.90
11152;DHT22;5630;49.342;10.802;2023-01-06T14:55:14;9.40;99.90
11152;DHT22;5630;49.342;10.802;2023-01-06T14:57:41;9.40;99.90
11152;DHT22;5630;49.342;10.802;2023-01-06T15:00:18;9.40;99.90
11152;DHT22;5630;49.342;10.802;2023-01-06T15:02:59;9.50;99.90
11152;DHT22;5630;49.342;10.802;2023-01-06T15:05:37;10.10;99.90
11152;DHT22;5630;49.342;10.802;2023-01-06T15:10:36;10.40;99.90
11152;DHT22;5630;49.342;10.802;2023-01-06T15:13:22;10.90;99.90
11152;DHT22;5630;49.342;10.802;2023-01-06T15:16:08;11.40;99.90
11152;DHT22;5630;49.342;10.802;2023-01-06T15:18:43;11.50;99.90
11152;DHT22;5630;49.342;10.802;2023-01-06T15:21:10;11.20;99.90
11152;DHT22;5630;49.342;10.802;2023-01-06T15:23:41;10.90;99.90
11152;DHT22;5630;49.342;10.802;2023-01-06T15:26:24;10.60;99.90
11152;DHT22;5630;49.342;10.802;2023-01-06T15:31:25;10.30;99.90
11152;DHT22;5630;49.342;10.802;2023-01-06T15:33:52;10.10;99.90
11152;DHT22;5630;49.342;10.802;2023-01-06T15:36:20;9.90;99.90
11152;DHT22;5630;49.342;10.802;2023-01-06T15:38:46;9.90;99.90
11152;DHT22;5630;49.342;10.802;2023-01-06T15:41:15;9.80;99.90
11152;DHT22;5630;49.342;10.802;2023-01-06T15:44:24;9.70;99.90
11152;DHT22;5630;49.342;10.802;2023-01-06T15:46:48;9.60;99.90
11152;DHT22;5630;49.342;10.802;2023-01-06T15:49:56;9.60;99.90
11152;DHT22;5630;49.342;10.802;2023-01-06T15:52:28;9.60;99.90
11152;DHT22;5630;49.342;10.802;2023-01-06T15:54:58;9.60;99.90
11152;DHT22;5630;49.342;10.802;2023-01-06T15:57:25;9.60;99.90
11152;DHT22;5630;49.342;10.802;2023-01-06T16:00:07;9.60;99.90
11152;DHT22;5630;49.342;10.802;2023-01-06T16:02:33;9.60;99.90
11152;DHT22;5630;49.342;10.802;2023-01-06T16:04:59;9.60;99.90
11152;DHT22;5630;49.342;10.802;2023-01-06T16:07:37;9.50;99.90
11152;DHT22;5630;49.342;10.802;2023-01-06T16:13:27;9.50;99.90
11152;DHT22;5630;49.342;10.802;2023-01-06T16:18:36;9.50;99.90
11152;DHT22;5630;49.342;10.802;2023-01-06T16:21:25;9.50;99.90
11152;DHT22;5630;49.342;10.802;2023-01-06T16:24:04;9.50;99.90
11152;DHT22;5630;49.342;10.802;2023-01-06T16:26:32;9.40;99.90
11152;DHT22;5630;49.342;10.802;2023-01-06T16:29:00;9.40;99.90
11152;DHT22;5630;49.342;10.802;2023-01-06T16:31:32;9.40;99.90
11152;DHT22;5630;49.342;10.802;2023-01-06T16:34:23;9.40;99.90
11152;DHT22;5630;49.342;10.802;2023-01-06T16:36:51;9.40;99.90
11152;DHT22;5630;49.342;10.802;2023-01-06T16:39:17;9.40;99.90
11152;DHT22;5630;49.342;10.802;2023-01-06T16:44:23;9.40;99.90
11152;DHT22;5630;49.342;10.802;2023-01-06T16:46:49;9.40;99.90
11152;DHT22;5630;49.342;10.802;2023-01-06T16:49:14;9.40;99.90
11152;DHT22;5630;49.342;10.802;2023-01-06T16:51:42;9.40;99.90
11152;DHT22;5630;49.342;10.802;2023-01-06T16:54:09;9.40;99.90
11152;DHT22;5630;49.342;10.802;2023-01-06T16:56:36;9.30;99.90
11152;DHT22;5630;49.342;10.802;2023-01-06T16:59:14;9.30;99.90
11152;DHT22;5630;49.342;10.802;2023-01-06T17:01:41;9.40;99.90
11152;DHT22;5630;49.342;10.802;2023-01-06T17:04:08;9.30;99.90
11152;DHT22;5630;49.342;10.802;2023-01-06T17:06:36;9.30;99.90
11152;DHT22;5630;49.342;10.802;2023-01-06T17:09:08;9.30;99.90
11152;DHT22;5630;49.342;10.802;2023-01-06T17:11:37;9.30;99.90
11152;DHT22;5630;49.342;10.802;2023-01-06T17:14:13;9.30;99.90
11152;DHT22;5630;49.342;10.802;2023-01-06T17:16:39;9.30;99.90
11152;DHT22;5630;49.342;10.802;2023-01-06T17:19:26;9.20;99.90
11152;DHT22;5630;49.342;10.802;2023-01-06T17:22:28;9.30;99.90
11152;DHT22;5630;49.342;10.802;2023-01-06T17:24:56;9.30;99.90
11152;DHT22;5630;49.342;10.802;2023-01-06T17:27:29;9.30;99.90
11152;DHT22;5630;49.342;10.802;2023-01-06T17:29:58;9.20;99.90
11152;DHT22;5630;49.342;10.802;2023-01-06T17:32:40;9.20;99.90
11152;DHT22;5630;49.342;10.802;2023-01-06T17:35:17;9.30;99.90
11152;DHT22;5630;49.342;10.802;2023-01-06T17:37:44;9.30;99.90
11152;DHT22;5630;49.342;10.802;2023-01-06T17:40:14;9.20;99.90
11152;DHT22;5630;49.342;10.802;2023-01-06T17:42:41;9.20;99.90
11152;DHT22;5630;49.342;10.802;2023-01-06T17:45:16;9.30;99.90
11152;DHT22;5630;49.342;10.802;2023-01-06T17:47:49;9.20;99.90
11152;DHT22;5630;49.342;10.802;2023-01-06T17:50:27;9.30;99.90
11152;DHT22;5630;49.342;10.802;2023-01-06T17:55:52;9.20;99.90
11152;DHT22;5630;49.342;10.802;2023-01-06T17:58:20;9.10;99.90
11152;DHT22;5630;49.342;10.802;2023-01-06T18:03:23;9.10;99.90
11152;DHT22;5630;49.342;10.802;2023-01-06T18:06:02;9.10;99.90
11152;DHT22;5630;49.342;10.802;2023-01-06T18:08:31;9.10;99.90
11152;DHT22;5630;49.342;10.802;2023-01-06T18:14:37;9.10;99.90
11152;DHT22;5630;49.342;10.802;2023-01-06T18:17:25;9.10;99.90
11152;DHT22;5630;49.342;10.802;2023-01-06T18:19:54;9.20;99.90
11152;DHT22;5630;49.342;10.802;2023-01-06T18:22:23;9.10;99.90
11152;DHT22;5630;49.342;10.802;2023-01-06T18:24:56;9.10;99.90
11152;DHT22;5630;49.342;10.802;2023-01-06T18:27:24;9.10;99.90
11152;DHT22;5630;49.342;10.802;2023-01-06T18:29:52;9.10;99.90
11152;DHT22;5630;49.342;10.802;2023-01-06T18:34:48;9.10;99.90
11152;DHT22;5630;49.342;10.802;2023-01-06T18:37:14;9.10;99.90
11152;DHT22;5630;49.342;10.802;2023-01-06T18:39:43;9.00;99.90